Portada
METAR-TAF:

METAR-TAF

Aeropuertos :

Ghriss, Argelia

latitud: 35-12N, longitud: 000-08E, altitud: 514 m

Observación

El informe se hizo hace 34 minutos, a las 23:00 UTC
Viento 6 kt del noreste
Temperatura 26°C
Humedad 30%
Presión 1019 hPa
Visibilidad 10 km o más
sin nubes por debajo de 1500 m y sin presencia de cumulonimbus.

METAR: DAOV 082300Z 05006KT CAVOK 26/07 Q1019

Hora: 00:34 (23:34 UTC)

Pronóstico

El informe se hizo hace 3 horas y 34 minutos, a las 20:00 UTC
Pronóstico válido del 08 a las 21 UTC al 09 a las 06 UTC
Viento 10 kt del norte
Visibilidad 10 km o más
sin nubes por debajo de 1500 m y sin presencia de cumulonimbus.
Evolucionando progresivamente
del 08 a las 23 UTC al 09 a las 01 UTC
Viento 2 kt con dirección variable

TAF: DAOV 082000Z 0821/0906 36010KT CAVOK BECMG 0823/0901 VRB02KT

Observaciones y pronósticos meteorológicos de más de 4000 aeropuertos (mensajes METAR y TAF).

Los puntos amarillos y rojos representan las estaciones disponibles.

Ponga el ratón en el punto deseado para ver el nombre de la estación.

Haga clic para ver las observaciones y los pronósticos meteorológicos.

Para cambiar el mapa : haga clic en los botones verdes con una cruz de color negro para hacer un zoom, en el botón verde con un guión para alejar o en las flechas verdes para mapas adyacentes.


METAR-TAF: